Time;durP1;ratioP1;P1;durP2;ratioP2;P2;SDS_P1;SDS_P2;PMS_P1;PMS_P2;Temp;Humidity;BMP_temperature;BMP_pressure;BME280_temperature;BME280_humidity;BME280_pressure;Samples;Min_cycle;Max_cycle;Signal;HPM_P1;HPM_P2
2022/06/07 00:00:41;;;;;;;1.50;0.60;;;;;;;13.45;100.00;100372.53;6262574;28;20051;-91
2022/06/07 00:03:43;;;;;;;0.95;0.40;;;;;;;13.43;100.00;100371.03;6265021;28;20223;-90
2022/06/07 00:06:45;;;;;;;2.10;0.40;;;;;;;13.43;100.00;100371.03;6256187;28;20223;-91
2022/06/07 00:09:47;;;;;;;1.60;0.40;;;;;;;13.39;100.00;100370.50;6251206;28;20049;-90
2022/06/07 00:12:49;;;;;;;0.50;0.45;;;;;;;13.39;100.00;100362.72;6264151;28;20070;-90
2022/06/07 00:15:51;;;;;;;1.00;0.40;;;;;;;13.34;100.00;100355.34;6256549;28;20045;-91
2022/06/07 00:18:53;;;;;;;1.15;0.43;;;;;;;13.39;100.00;100354.91;6235265;28;20058;-90
2022/06/07 00:21:55;;;;;;;0.47;0.35;;;;;;;13.29;100.00;100357.56;6243428;28;20431;-90
2022/06/07 00:24:57;;;;;;;0.82;0.43;;;;;;;13.22;100.00;100360.84;6251029;28;20136;-90
2022/06/07 00:27:59;;;;;;;0.40;0.40;;;;;;;13.24;100.00;100359.72;6250192;28;20399;-91
2022/06/07 00:31:01;;;;;;;0.60;0.60;;;;;;;13.25;100.00;100358.75;6250527;28;20183;-90
2022/06/07 00:34:06;;;;;;;0.77;0.50;;;;;;;13.33;100.00;100360.66;6255005;28;20045;-91
2022/06/07 00:37:08;;;;;;;0.70;0.50;;;;;;;13.26;100.00;100354.38;6237250;28;20129;-90
2022/06/07 00:40:11;;;;;;;0.50;0.50;;;;;;;13.15;100.00;100356.19;6234323;28;20040;-91
2022/06/07 00:43:13;;;;;;;1.52;0.73;;;;;;;13.09;100.00;100355.94;6228321;28;20053;-91
2022/06/07 00:46:16;;;;;;;0.50;0.50;;;;;;;13.08;100.00;100357.72;6240837;28;20038;-91
2022/06/07 00:49:19;;;;;;;0.50;0.50;;;;;;;13.02;100.00;100353.09;6238960;28;20507;-91
2022/06/07 00:52:24;;;;;;;0.60;0.60;;;;;;;13.00;100.00;100351.59;6231747;28;20215;-91
2022/06/07 00:55:27;;;;;;;1.17;0.40;;;;;;;12.95;100.00;100349.41;6232953;28;20056;-91
2022/06/07 00:58:39;;;;;;;1.08;0.50;;;;;;;12.95;100.00;100349.41;6228897;28;20077;-91
2022/06/07 01:01:42;;;;;;;0.55;0.55;;;;;;;12.92;100.00;100342.72;6241113;28;20112;-91
2022/06/07 01:04:44;;;;;;;1.95;0.70;;;;;;;12.87;100.00;100349.31;6250596;28;20043;-91
2022/06/07 01:11:07;;;;;;;0.70;0.70;;;;;;;12.79;100.00;100346.56;6232305;28;20073;-91
2022/06/07 01:14:10;;;;;;;1.13;0.70;;;;;;;12.77;100.00;100348.50;6242202;28;20049;-90
2022/06/07 01:17:12;;;;;;;1.77;0.77;;;;;;;12.80;100.00;100343.03;6260647;28;20410;-91
2022/06/07 01:20:15;;;;;;;0.80;0.80;;;;;;;12.84;100.00;100342.59;6259548;28;20037;-90
2022/06/07 01:23:17;;;;;;;1.27;0.63;;;;;;;12.84;100.00;100339.19;6242655;28;20041;-91
2022/06/07 01:26:22;;;;;;;0.63;0.63;;;;;;;12.76;100.00;100346.88;6238312;28;20053;-91
2022/06/07 01:29:24;;;;;;;1.58;0.70;;;;;;;12.74;100.00;100346.19;6235245;28;20046;-91
2022/06/07 01:32:26;;;;;;;3.22;0.80;;;;;;;12.66;100.00;100336.50;6251428;28;20046;-91
2022/06/07 01:35:29;;;;;;;1.33;0.70;;;;;;;12.59;100.00;100333.63;6239419;28;20060;-91
2022/06/07 01:38:33;;;;;;;2.15;0.80;;;;;;;12.58;100.00;100337.19;6238296;28;20069;-91
2022/06/07 01:41:54;;;;;;;0.70;0.70;;;;;;;12.61;100.00;100330.91;6237096;28;20050;-91
2022/06/07 01:44:58;;;;;;;1.38;0.70;;;;;;;12.55;100.00;100329.69;6251067;28;20052;-91
2022/06/07 01:48:01;;;;;;;1.35;0.60;;;;;;;12.56;100.00;100333.91;6250965;28;20036;-90
2022/06/07 01:51:04;;;;;;;0.60;0.60;;;;;;;12.58;100.00;100331.19;6264119;28;20643;-90
2022/06/07 01:54:06;;;;;;;0.60;0.55;;;;;;;12.46;100.00;100326.13;6238909;28;20525;-91
2022/06/07 01:57:09;;;;;;;0.60;0.60;;;;;;;12.44;100.00;100325.44;6232540;28;20068;-91
2022/06/07 02:00:12;;;;;;;0.70;0.70;;;;;;;12.39;100.00;100322.44;6231288;28;20046;-91
2022/06/07 02:03:22;;;;;;;0.98;0.80;;;;;;;12.46;100.00;100322.72;6230676;28;20180;-90
2022/06/07 02:06:24;;;;;;;1.33;0.70;;;;;;;12.45;100.00;100318.50;6244671;28;20049;-91
2022/06/07 02:09:26;;;;;;;1.33;0.80;;;;;;;12.43;100.00;100316.03;6236276;28;20277;-91
2022/06/07 02:12:30;;;;;;;0.90;0.70;;;;;;;12.50;100.00;100317.09;6260757;28;20042;-91
2022/06/07 02:15:33;;;;;;;1.08;0.77;;;;;;;12.45;100.00;100316.72;6242742;28;20033;-91
2022/06/07 02:18:36;;;;;;;1.73;0.80;;;;;;;12.35;100.00;100313.31;6240694;28;20041;-91
2022/06/07 02:21:58;;;;;;;1.10;0.82;;;;;;;12.32;100.00;100315.34;6234930;28;20050;-90
2022/06/07 02:25:00;;;;;;;0.70;0.70;;;;;;;12.30;100.00;100318.09;6251352;28;20053;-90
2022/06/07 02:28:03;;;;;;;4.13;1.02;;;;;;;12.20;100.00;100312.09;6259237;28;20037;-90
2022/06/07 02:31:09;;;;;;;2.35;1.30;;;;;;;12.20;100.00;100314.69;6249178;28;20041;-90
2022/06/07 02:34:15;;;;;;;1.15;0.90;;;;;;;12.18;100.00;100319.19;6251896;28;20477;-90
2022/06/07 02:37:16;;;;;;;0.93;0.90;;;;;;;12.28;100.00;100312.22;6257377;28;20056;-91
2022/06/07 02:40:19;;;;;;;1.13;1.02;;;;;;;12.34;100.00;100310.84;6240540;28;20648;-90
2022/06/07 02:43:21;;;;;;;1.13;1.02;;;;;;;12.45;100.00;100306.31;6237819;28;20048;-90
2022/06/07 02:46:23;;;;;;;1.52;1.40;;;;;;;12.48;100.00;100308.63;6243673;28;20046;-90
2022/06/07 02:49:25;;;;;;;1.27;1.17;;;;;;;12.55;100.00;100313.28;6235783;28;20559;-91
2022/06/07 02:52:27;;;;;;;1.50;1.40;;;;;;;12.64;100.00;100308.06;6255426;28;20047;-91
2022/06/07 02:55:42;;;;;;;1.20;1.10;;;;;;;12.70;100.00;100304.91;6235149;28;20053;-91
2022/06/07 02:58:54;;;;;;;1.40;1.20;;;;;;;12.81;100.00;100303.09;6237140;28;20060;-90
2022/06/07 03:01:59;;;;;;;1.88;1.38;;;;;;;12.93;100.00;100301.97;6233027;28;20212;-90
2022/06/07 03:05:02;;;;;;;1.77;1.48;;;;;;;12.98;100.00;100306.75;6239319;28;20050;-91
2022/06/07 03:08:04;;;;;;;2.33;1.45;;;;;;;12.99;100.00;100300.56;6222076;28;20058;-91
2022/06/07 03:11:07;;;;;;;4.15;1.30;;;;;;;12.91;100.00;100293.50;6247718;28;20033;-90
2022/06/07 03:14:13;;;;;;;2.42;1.30;;;;;;;12.75;100.00;100295.88;6246862;28;20069;-91
2022/06/07 03:17:14;;;;;;;1.95;1.42;;;;;;;12.63;100.00;100297.81;6246779;28;20502;-91
2022/06/07 03:20:16;;;;;;;2.15;1.52;;;;;;;12.58;100.00;100289.63;6251766;28;20075;-91
2022/06/07 03:23:19;;;;;;;2.85;1.60;;;;;;;12.52;100.00;100298.81;6240602;28;20045;-91
2022/06/07 03:26:29;;;;;;;2.28;1.45;;;;;;;12.49;100.00;100292.09;6250503;28;20521;-91
2022/06/07 03:29:45;;;;;;;3.30;1.67;;;;;;;12.53;100.00;100300.44;6232804;28;20112;-91
2022/06/07 03:32:54;;;;;;;3.42;1.63;;;;;;;12.57;100.00;100286.22;6238589;28;20055;-90
2022/06/07 03:36:28;;;;;;;2.45;1.75;;;;;;;12.57;100.00;100290.56;6250078;28;20060;-91
2022/06/07 03:39:31;;;;;;;2.05;1.38;;;;;;;12.59;100.00;100294.66;6263624;28;20063;-91
2022/06/07 03:42:36;;;;;;;2.88;1.67;;;;;;;12.68;100.00;100295.63;6216503;28;20101;-91
2022/06/07 03:45:39;;;;;;;3.55;1.60;;;;;;;12.80;100.00;100284.09;6237629;28;20053;-91
2022/06/07 03:48:47;;;;;;;1.65;1.50;;;;;;;12.89;100.00;100283.28;6246513;28;20041;-91
2022/06/07 03:51:49;;;;;;;2.95;1.77;;;;;;;13.06;100.00;100284.28;6245503;28;20053;-91
2022/06/07 03:54:52;;;;;;;2.35;1.48;;;;;;;13.13;100.00;100287.94;6254855;28;20398;-91
2022/06/07 03:57:57;;;;;;;3.58;2.17;;;;;;;13.26;100.00;100286.78;6238647;28;20051;-91
2022/06/07 04:01:01;;;;;;;4.43;2.10;;;;;;;13.27;100.00;100288.47;6251075;28;20045;-91
2022/06/07 04:04:07;;;;;;;3.13;2.00;;;;;;;13.33;100.00;100291.28;6251679;28;20049;-90
2022/06/07 04:10:36;;;;;;;2.15;1.95;;;;;;;13.47;100.00;100289.19;6258014;28;20065;-91
2022/06/07 04:13:39;;;;;;;3.30;2.05;;;;;;;13.53;100.00;100288.59;6246416;28;20055;-91
2022/06/07 04:16:44;;;;;;;1.75;1.60;;;;;;;13.61;100.00;100285.25;6244640;28;20057;-90
2022/06/07 04:19:53;;;;;;;2.25;1.95;;;;;;;13.65;100.00;100284.00;6255782;28;20051;-91
2022/06/07 04:22:57;;;;;;;3.35;2.20;;;;;;;13.67;100.00;100285.50;6240526;28;20070;-90
2022/06/07 04:26:11;;;;;;;2.70;2.20;;;;;;;13.69;100.00;100285.34;6227506;28;20045;-91
2022/06/07 04:29:17;;;;;;;2.28;2.08;;;;;;;13.74;100.00;100283.13;6246867;28;20080;-91
2022/06/07 04:32:20;;;;;;;4.97;2.38;;;;;;;13.79;100.00;100273.09;6241372;28;20120;-91
2022/06/07 04:35:26;;;;;;;3.60;2.53;;;;;;;13.86;100.00;100274.13;6241675;28;20064;-90
2022/06/07 04:38:33;;;;;;;2.15;2.00;;;;;;;13.94;100.00;100278.59;6215190;28;20129;-90
2022/06/07 04:41:35;;;;;;;3.72;2.20;;;;;;;14.00;100.00;100285.81;6242873;28;20041;-90
2022/06/07 04:44:40;;;;;;;2.50;2.20;;;;;;;14.07;100.00;100276.44;6243865;28;20045;-90
2022/06/07 04:47:45;;;;;;;3.03;2.30;;;;;;;14.11;100.00;100272.56;6235670;28;20038;-90
2022/06/07 04:51:00;;;;;;;4.38;2.25;;;;;;;14.17;100.00;100271.97;6228329;28;20412;-90
2022/06/07 04:54:03;;;;;;;2.70;2.35;;;;;;;14.22;100.00;100272.31;6226646;28;20496;-91
2022/06/07 04:57:10;;;;;;;4.07;2.00;;;;;;;14.24;100.00;100273.97;6238651;28;20404;-90
2022/06/07 05:00:18;;;;;;;2.88;2.10;;;;;;;14.24;100.00;100279.19;6238170;28;20053;-90
2022/06/07 05:03:28;;;;;;;4.10;2.03;;;;;;;14.23;100.00;100275.72;6230765;28;20110;-91
2022/06/07 05:06:37;;;;;;;3.40;2.42;;;;;;;14.18;100.00;100272.75;6228590;28;20122;-91
2022/06/07 05:10:12;;;;;;;2.40;2.08;;;;;;;14.09;100.00;100269.28;6228834;28;20103;-91
2022/06/07 05:13:21;;;;;;;3.70;2.20;;;;;;;14.09;100.00;100273.69;6231979;28;20046;-91
2022/06/07 05:16:24;;;;;;;3.35;2.40;;;;;;;14.01;100.00;100264.00;6229637;28;20048;-91
2022/06/07 05:19:29;;;;;;;4.13;2.42;;;;;;;13.99;100.00;100260.75;6231035;28;20049;-90
2022/06/07 05:22:38;;;;;;;3.78;2.47;;;;;;;14.06;100.00;100253.16;6252033;28;20049;-90
2022/06/07 05:26:05;;;;;;;4.05;2.33;;;;;;;14.08;100.00;100264.22;6247412;28;20119;-90
2022/06/07 05:29:17;;;;;;;2.30;2.10;;;;;;;14.08;100.00;100259.84;6237046;28;20095;-90
2022/06/07 05:32:20;;;;;;;6.10;2.30;;;;;;;14.09;100.00;100258.06;6253431;28;20104;-91
2022/06/07 05:35:27;;;;;;;5.20;2.88;;;;;;;14.09;100.00;100263.28;6245676;28;20042;-90
2022/06/07 05:38:42;;;;;;;3.13;2.20;;;;;;;14.15;100.00;100265.25;6254318;28;20049;-90
2022/06/07 05:41:49;;;;;;;5.45;2.45;;;;;;;14.27;100.00;100271.06;6257336;28;20044;-90
2022/06/07 05:44:55;;;;;;;2.60;2.40;;;;;;;14.45;100.00;100261.41;6264473;28;20060;-90
2022/06/07 05:47:58;;;;;;;3.63;2.40;;;;;;;14.61;100.00;100266.75;6253839;28;20049;-90
2022/06/07 05:51:04;;;;;;;3.90;2.00;;;;;;;14.80;100.00;100265.72;6260604;28;20060;-90
2022/06/07 05:54:07;;;;;;;2.78;1.80;;;;;;;15.15;100.00;100250.88;6260751;28;20045;-90
2022/06/07 05:57:10;;;;;;;2.58;2.38;;;;;;;15.56;100.00;100258.03;6244608;28;20142;-90
2022/06/07 06:00:15;;;;;;;4.32;1.90;;;;;;;15.86;100.00;100260.03;6256460;28;20071;-91
2022/06/07 06:03:21;;;;;;;3.72;2.50;;;;;;;16.03;100.00;100260.06;6231700;28;20419;-90
2022/06/07 06:06:24;;;;;;;6.68;2.67;;;;;;;16.01;100.00;100262.00;6259145;28;20117;-90
2022/06/07 06:12:57;;;;;;;2.88;2.10;;;;;;;15.98;100.00;100263.16;6253852;28;20043;-90
2022/06/07 06:16:04;;;;;;;3.95;2.30;;;;;;;16.00;100.00;100266.44;6259512;28;20045;-90
2022/06/07 06:19:10;;;;;;;2.67;2.10;;;;;;;16.01;100.00;100267.22;6254598;28;20098;-90
2022/06/07 06:22:19;;;;;;;3.08;2.00;;;;;;;15.84;100.00;100271.63;6255751;28;20621;-90
2022/06/07 06:25:40;;;;;;;3.53;2.10;;;;;;;15.63;100.00;100272.06;6245779;28;20061;-90
2022/06/07 06:28:43;;;;;;;2.10;1.90;;;;;;;15.47;100.00;100275.44;6240724;28;20045;-90
2022/06/07 06:31:46;;;;;;;3.65;2.08;;;;;;;15.34;100.00;100269.84;6246900;28;20046;-90
2022/06/07 06:34:51;;;;;;;4.82;2.10;;;;;;;15.30;100.00;100271.94;6239671;28;20052;-90
2022/06/07 06:37:58;;;;;;;3.97;1.80;;;;;;;15.33;100.00;100274.25;6240430;28;20052;-90
2022/06/07 06:41:13;;;;;;;4.60;1.90;;;;;;;15.34;100.00;100270.66;6253406;28;20053;-90
2022/06/07 06:44:18;;;;;;;4.30;2.00;;;;;;;15.59;100.00;100274.16;6231609;28;20045;-89
2022/06/07 06:47:20;;;;;;;2.45;2.00;;;;;;;15.58;100.00;100264.72;6238880;28;20056;-89
2022/06/07 06:50:22;;;;;;;1.70;1.55;;;;;;;15.69;100.00;100268.78;6245529;28;20121;-89
2022/06/07 06:53:26;;;;;;;4.00;1.83;;;;;;;15.80;100.00;100272.91;6236740;28;20388;-89
2022/06/07 06:56:33;;;;;;;2.42;1.70;;;;;;;16.09;98.08;100262.00;6235235;28;20068;-89
2022/06/07 06:59:42;;;;;;;3.13;1.60;;;;;;;16.30;97.28;100261.53;6228242;28;20565;-88
2022/06/07 07:02:45;;;;;;;3.05;1.67;;;;;;;16.66;90.56;100268.97;6248479;28;20769;-89
2022/06/07 07:05:56;;;;;;;4.10;1.73;;;;;;;16.77;86.08;100271.22;6236958;28;20676;-89
2022/06/07 07:09:06;;;;;;;3.22;1.60;;;;;;;16.98;83.08;100263.66;6214570;28;20442;-89
2022/06/07 07:12:10;;;;;;;3.08;1.23;;;;;;;16.95;79.92;100269.22;6266862;28;20560;-89
2022/06/07 07:15:23;;;;;;;2.08;1.60;;;;;;;16.90;80.71;100258.47;6256535;28;20514;-89
2022/06/07 07:18:38;;;;;;;3.17;1.52;;;;;;;16.72;82.75;100257.81;6235741;28;20045;-89
2022/06/07 07:21:44;;;;;;;2.67;1.35;;;;;;;16.96;82.15;100264.81;6250216;28;20045;-89
2022/06/07 07:24:46;;;;;;;3.95;1.40;;;;;;;17.19;77.51;100267.47;6229179;28;20132;-89
2022/06/07 07:27:51;;;;;;;2.95;1.23;;;;;;;17.22;77.05;100267.97;6254887;28;20041;-89
2022/06/07 07:30:59;;;;;;;4.22;1.30;;;;;;;17.29;77.14;100267.28;6244711;28;20164;-89
2022/06/07 07:34:16;;;;;;;2.92;1.00;;;;;;;17.25;79.08;100256.34;6266299;28;20053;-89
2022/06/07 07:37:20;;;;;;;1.90;1.08;;;;;;;17.15;78.90;100255.75;6235497;28;20140;-90
2022/06/07 07:40:30;;;;;;;2.90;1.00;;;;;;;17.22;74.37;100260.13;6238799;28;20065;-89
2022/06/07 07:43:34;;;;;;;2.55;1.13;;;;;;;17.29;72.01;100260.28;6240662;28;20041;-89
2022/06/07 07:46:36;;;;;;;2.55;1.10;;;;;;;17.29;69.49;100262.88;6231327;28;20144;-89
2022/06/07 07:49:39;;;;;;;1.90;1.10;;;;;;;17.26;66.99;100257.97;6242078;28;20048;-89
2022/06/07 07:52:43;;;;;;;2.72;1.25;;;;;;;17.25;67.27;100258.97;6246296;28;20041;-89
2022/06/07 07:55:49;;;;;;;2.88;0.80;;;;;;;17.24;67.70;100249.47;6263434;28;20059;-89
2022/06/07 07:58:54;;;;;;;3.28;1.13;;;;;;;17.27;66.13;100250.97;6260658;28;20636;-89
2022/06/07 08:01:56;;;;;;;3.15;1.30;;;;;;;17.34;67.07;100247.47;6229969;28;20049;-87
2022/06/07 08:04:58;;;;;;;1.45;0.98;;;;;;;17.45;65.50;100248.88;6261321;28;20071;-87
2022/06/07 08:08:01;;;;;;;2.03;0.80;;;;;;;17.58;60.99;100241.25;6232184;28;20052;-87
2022/06/07 08:11:06;;;;;;;1.45;1.00;;;;;;;17.65;60.39;100242.19;6233318;28;20101;-86
2022/06/07 08:14:14;;;;;;;1.58;0.90;;;;;;;17.77;59.17;100244.44;6249316;28;20044;-86
2022/06/07 08:17:17;;;;;;;1.80;0.90;;;;;;;17.98;61.51;100235.94;6261208;28;20079;-86
2022/06/07 08:20:20;;;;;;;2.08;1.08;;;;;;;18.21;60.12;100241.97;6232210;28;20046;-86
2022/06/07 08:23:22;;;;;;;2.80;1.10;;;;;;;18.47;62.29;100249.41;6236921;28;20041;-88
2022/06/07 08:26:26;;;;;;;5.18;1.98;;;;;;;18.57;59.45;100243.09;6230031;28;20038;-87
2022/06/07 08:29:28;;;;;;;1.35;1.10;;;;;;;18.64;59.22;100246.63;6244748;28;20069;-86
2022/06/07 08:32:30;;;;;;;1.40;1.23;;;;;;;18.73;58.87;100245.50;6253873;28;20048;-87
2022/06/07 08:38:54;;;;;;;1.60;1.40;;;;;;;18.79;59.60;100241.41;6221515;28;20045;-87
2022/06/07 08:42:32;;;;;;;2.17;1.23;;;;;;;18.93;61.18;100249.25;6246788;28;20045;-87
2022/06/07 08:45:39;;;;;;;1.73;1.30;;;;;;;18.98;60.73;100240.00;6250759;28;20601;-87
2022/06/07 08:48:42;;;;;;;1.30;1.17;;;;;;;19.01;60.77;100247.53;6227300;28;20182;-86
2022/06/07 08:51:59;;;;;;;3.28;1.25;;;;;;;19.24;60.02;100239.53;6243342;28;20052;-87
2022/06/07 08:55:12;;;;;;;4.13;1.30;;;;;;;19.52;59.13;100244.84;6230791;28;20055;-87
2022/06/07 08:58:18;;;;;;;3.42;1.20;;;;;;;19.73;57.60;100247.53;6229738;28;20490;-86
2022/06/07 09:01:52;;;;;;;1.73;1.42;;;;;;;19.76;58.35;100246.34;6235459;28;20052;-86
2022/06/07 09:04:55;;;;;;;3.15;1.30;;;;;;;19.89;58.08;100241.19;6228933;28;20471;-87
2022/06/07 09:07:58;;;;;;;1.98;1.08;;;;;;;20.15;57.50;100237.97;6233095;28;20211;-87
2022/06/07 09:14:34;;;;;;;0.95;0.90;;;;;;;20.12;55.97;100240.16;6238367;28;20057;-87
2022/06/07 09:17:40;;;;;;;2.05;1.17;;;;;;;20.10;54.88;100237.75;6245821;28;20189;-87
2022/06/07 09:20:46;;;;;;;2.72;1.00;;;;;;;20.14;52.03;100244.22;6249126;28;20128;-89
2022/06/07 09:23:49;;;;;;;2.03;0.95;;;;;;;20.00;51.40;100247.78;6235746;28;20053;-87
2022/06/07 09:26:51;;;;;;;2.58;0.90;;;;;;;19.90;48.96;100244.63;6253188;28;20392;-87
2022/06/07 09:30:17;;;;;;;1.30;1.20;;;;;;;19.98;48.52;100244.53;6246646;28;20492;-87
2022/06/07 09:33:35;;;;;;;2.05;1.00;;;;;;;20.07;50.23;100238.09;6241657;28;20174;-86
2022/06/07 09:36:41;;;;;;;1.92;1.13;;;;;;;20.11;50.40;100243.81;6252366;28;20048;-87
2022/06/07 09:39:44;;;;;;;1.95;1.10;;;;;;;20.11;49.94;100231.47;6237286;28;20056;-86
2022/06/07 09:42:53;;;;;;;2.08;0.90;;;;;;;20.14;50.73;100231.09;6259904;28;20515;-87
2022/06/07 09:45:59;;;;;;;2.47;1.00;;;;;;;20.20;48.87;100237.41;6261816;28;20041;-86
2022/06/07 09:49:02;;;;;;;1.27;0.98;;;;;;;20.29;50.88;100232.81;6238739;28;20037;-87
2022/06/07 09:52:35;;;;;;;1.48;0.80;;;;;;;20.47;49.30;100229.69;6240081;28;20045;-87
2022/06/07 09:55:47;;;;;;;3.42;0.98;;;;;;;20.63;48.61;100242.56;6245059;28;20048;-87
2022/06/07 09:59:08;;;;;;;2.58;1.10;;;;;;;20.85;48.46;100236.19;6242135;28;20045;-87
2022/06/07 10:02:42;;;;;;;1.80;0.90;;;;;;;21.07;47.30;100238.72;6247041;28;20048;-87
2022/06/07 10:05:57;;;;;;;0.93;0.82;;;;;;;21.06;46.61;100237.91;6255410;28;20174;-87
2022/06/07 10:08:59;;;;;;;1.98;0.93;;;;;;;21.35;48.16;100235.16;6245400;28;20036;-87
2022/06/07 10:12:27;;;;;;;1.55;0.90;;;;;;;21.76;47.65;100236.88;6248018;28;20041;-87
2022/06/07 10:16:03;;;;;;;1.77;1.17;;;;;;;21.59;46.59;100237.28;6251674;28;20123;-87
2022/06/07 10:19:27;;;;;;;2.85;1.10;;;;;;;21.36;47.63;100229.69;6244515;28;20103;-87
2022/06/07 10:22:49;;;;;;;1.83;1.00;;;;;;;21.24;49.10;100240.00;6253539;28;20048;-86
2022/06/07 10:26:04;;;;;;;1.90;1.25;;;;;;;21.14;51.27;100228.19;6246473;28;20056;-86
2022/06/07 10:29:24;;;;;;;1.55;1.08;;;;;;;21.36;50.68;100219.16;6248170;28;20483;-88
2022/06/07 10:32:34;;;;;;;;;;;;;;;21.93;49.33;100227.53;6224089;28;20148;-87
2022/06/07 10:35:49;;;;;;;2.55;1.20;;;;;;;22.15;48.55;100228.97;6248789;28;19986;-88
2022/06/07 10:39:10;;;;;;;2.35;1.23;;;;;;;22.50;48.90;100223.44;6246898;28;20122;-87
2022/06/07 10:42:43;;;;;;;1.80;1.40;;;;;;;22.52;48.34;100239.88;6241882;28;20426;-87
2022/06/07 10:45:46;;;;;;;2.67;1.58;;;;;;;22.71;48.10;100218.94;6244792;28;20066;-86
2022/06/07 10:49:03;;;;;;;2.83;1.48;;;;;;;22.48;47.33;100222.84;6231467;28;20188;-88
2022/06/07 10:52:29;;;;;;;1.98;1.48;;;;;;;22.51;47.97;100233.00;6233364;28;20049;-87
2022/06/07 10:55:43;;;;;;;2.65;1.55;;;;;;;22.51;48.95;100221.63;6241065;28;20038;-87
2022/06/07 10:58:55;;;;;;;4.65;1.70;;;;;;;22.57;48.03;100218.16;6238085;28;20773;-87
2022/06/07 11:02:34;;;;;;;2.30;1.60;;;;;;;22.44;47.82;100224.28;6232660;28;20403;-87
2022/06/07 11:09:21;;;;;;;2.97;1.30;;;;;;;22.66;47.22;100221.38;6245661;28;20072;-87
2022/06/07 11:12:47;;;;;;;3.88;1.30;;;;;;;22.96;46.13;100211.94;6255969;28;20044;-87
2022/06/07 11:16:27;;;;;;;1.83;1.40;;;;;;;23.03;47.34;100216.38;6234950;28;20502;-87
2022/06/07 11:19:31;;;;;;;3.17;1.48;;;;;;;23.06;47.38;100215.97;6242989;28;20044;-86
2022/06/07 11:22:36;;;;;;;3.55;1.52;;;;;;;22.99;47.09;100211.53;6244946;28;20037;-87
2022/06/07 11:25:57;;;;;;;2.35;1.40;;;;;;;23.41;47.98;100208.47;6248795;28;20046;-87
2022/06/07 11:29:07;;;;;;;4.72;1.48;;;;;;;23.90;45.82;100214.00;6246196;28;20056;-88
2022/06/07 11:32:40;;;;;;;2.60;1.60;;;;;;;24.44;44.10;100196.59;6234456;28;20053;-87
2022/06/07 11:36:06;;;;;;;1.73;1.33;;;;;;;24.95;45.82;100203.34;6241044;28;20403;-87
2022/06/07 11:39:20;;;;;;;1.50;1.40;;;;;;;24.85;43.20;100208.38;6245615;28;20041;-87
2022/06/07 11:42:34;;;;;;;3.33;1.40;;;;;;;24.58;44.83;100208.69;6239889;28;20865;-87
2022/06/07 11:45:51;;;;;;;2.20;1.70;;;;;;;24.30;44.10;100201.25;6238580;28;20060;-86
2022/06/07 11:48:54;;;;;;;1.85;1.75;;;;;;;24.09;44.95;100210.38;6231267;28;20044;-87
2022/06/07 11:52:12;;;;;;;1.60;1.50;;;;;;;23.39;45.83;100205.22;6226665;28;20746;-86
2022/06/07 11:55:17;;;;;;;2.05;1.90;;;;;;;23.20;47.05;100201.66;6230140;28;20510;-86
2022/06/07 11:58:57;;;;;;;2.22;1.95;;;;;;;23.59;47.86;100207.72;6227572;28;20046;-87
2022/06/07 12:02:02;;;;;;;4.40;1.88;;;;;;;23.54;46.20;100205.72;6229818;28;20041;-87
2022/06/07 12:05:28;;;;;;;9.98;2.30;;;;;;;23.37;46.16;100197.50;6238645;28;20064;-87
2022/06/07 12:08:34;;;;;;;2.83;1.80;;;;;;;23.76;46.97;100187.69;6236939;28;20041;-87
2022/06/07 12:11:42;;;;;;;3.85;2.17;;;;;;;24.34;46.51;100183.06;6238106;28;20100;-87
2022/06/07 12:14:49;;;;;;;2.63;1.80;;;;;;;24.42;45.34;100185.41;6240014;28;20246;-89
2022/06/07 12:17:53;;;;;;;2.30;2.10;;;;;;;24.21;44.96;100184.84;6243114;28;20076;-89
2022/06/07 12:21:06;;;;;;;4.13;1.92;;;;;;;24.18;43.93;100187.13;6242292;28;20040;-88
2022/06/07 12:24:16;;;;;;;2.40;1.90;;;;;;;24.27;46.01;100189.25;6235817;28;20041;-88
2022/06/07 12:27:30;;;;;;;4.65;1.98;;;;;;;24.38;45.51;100182.41;6249936;28;20042;-90
2022/06/07 12:30:34;;;;;;;2.13;1.90;;;;;;;24.24;45.17;100165.06;6235690;28;20049;-89
2022/06/07 12:33:36;;;;;;;2.45;1.90;;;;;;;24.18;45.35;100181.84;6237287;28;20297;-91
2022/06/07 12:36:39;;;;;;;4.80;1.90;;;;;;;24.38;44.76;100176.31;6230783;28;20099;-89
2022/06/07 12:39:57;;;;;;;2.25;1.88;;;;;;;24.64;44.11;100165.44;6230082;28;20505;-89
2022/06/07 12:43:00;;;;;;;3.95;2.00;;;;;;;24.38;44.21;100171.84;6237896;28;20038;-90
2022/06/07 12:46:07;;;;;;;2.53;2.03;;;;;;;23.97;45.07;100167.16;6238273;28;20051;-88
2022/06/07 12:49:28;;;;;;;2.47;2.10;;;;;;;23.41;48.26;100172.28;6240016;28;20533;-88
2022/06/07 12:52:32;;;;;;;2.55;1.80;;;;;;;23.10;48.48;100174.91;6233316;28;20037;-89
2022/06/07 12:55:37;;;;;;;3.58;1.90;;;;;;;23.62;47.21;100173.72;6236723;28;20040;-89
2022/06/07 12:58:55;;;;;;;2.58;1.65;;;;;;;24.50;44.60;100156.06;6241414;28;20418;-89
2022/06/07 13:01:57;;;;;;;2.05;1.70;;;;;;;24.71;41.71;100160.06;6242386;28;20419;-88
2022/06/07 13:05:06;;;;;;;3.13;2.10;;;;;;;24.36;41.82;100173.09;6236382;28;20108;-90
2022/06/07 13:08:24;;;;;;;4.13;2.15;;;;;;;23.80;44.58;100177.47;6254901;28;20487;-86
2022/06/07 13:11:31;;;;;;;5.15;2.72;;;;;;;23.19;49.09;100171.81;6241836;28;20129;-88
2022/06/07 13:14:34;;;;;;;5.07;2.95;;;;;;;22.51;53.63;100188.16;6243948;28;20403;-88
2022/06/07 13:17:39;;;;;;;3.38;3.08;;;;;;;21.78;57.16;100182.97;6250453;28;20051;-90
2022/06/07 13:20:45;;;;;;;5.85;2.72;;;;;;;21.40;62.83;100177.47;6260523;28;20045;-88
2022/06/07 13:23:53;;;;;;;4.10;2.85;;;;;;;21.53;59.37;100174.84;6250072;28;20045;-87
2022/06/07 13:27:02;;;;;;;3.70;2.95;;;;;;;21.89;60.01;100179.72;6214349;28;20533;-88
2022/06/07 13:30:13;;;;;;;3.45;3.15;;;;;;;22.23;57.68;100184.97;6246270;28;20045;-87
2022/06/07 13:33:21;;;;;;;3.85;3.08;;;;;;;22.49;56.45;100184.09;6229141;28;20082;-87
2022/06/07 13:36:39;;;;;;;3.22;3.00;;;;;;;23.35;57.09;100181.06;6246260;28;20529;-89
2022/06/07 13:40:01;;;;;;;3.90;3.13;;;;;;;23.73;56.10;100177.56;6254575;28;20049;-87
2022/06/07 13:43:11;;;;;;;6.20;3.45;;;;;;;23.43;54.40;100175.53;6253995;28;20037;-87
2022/06/07 13:46:25;;;;;;;3.80;3.20;;;;;;;23.50;53.44;100180.75;6239166;28;20514;-87
2022/06/07 13:53:24;;;;;;;3.92;3.30;;;;;;;22.95;54.42;100185.72;6245192;28;20037;-87
2022/06/07 13:56:29;;;;;;;4.78;3.35;;;;;;;22.91;56.41;100184.56;6238638;28;20038;-87
2022/06/07 13:59:31;;;;;;;4.28;3.67;;;;;;;23.10;54.71;100182.84;6236013;28;20052;-87
2022/06/07 14:02:38;;;;;;;4.60;3.67;;;;;;;23.31;55.52;100181.72;6241945;28;20042;-86
2022/06/07 14:05:41;;;;;;;3.90;3.25;;;;;;;23.85;53.25;100170.53;6256415;28;20483;-89
2022/06/07 14:08:44;;;;;;;4.43;3.78;;;;;;;24.20;52.07;100175.28;6229982;28;20107;-88
2022/06/07 14:11:48;;;;;;;4.47;3.40;;;;;;;23.76;51.68;100177.13;6249306;28;20042;-88
2022/06/07 14:14:50;;;;;;;3.88;3.40;;;;;;;23.19;56.16;100173.66;6250663;28;20034;-87
2022/06/07 14:17:51;;;;;;;5.55;4.10;;;;;;;23.14;52.83;100176.94;6252662;28;20049;-86
2022/06/07 14:20:54;;;;;;;3.67;3.35;;;;;;;23.36;54.53;100169.47;6264394;28;20045;-87
2022/06/07 14:23:57;;;;;;;4.45;3.50;;;;;;;23.46;53.83;100168.19;6234691;28;20037;-86
2022/06/07 14:26:59;;;;;;;3.83;3.35;;;;;;;23.47;55.44;100170.59;6229827;28;20085;-87
2022/06/07 14:30:03;;;;;;;3.70;3.40;;;;;;;23.51;55.50;100171.81;6242317;28;20048;-87
2022/06/07 14:33:05;;;;;;;3.80;3.45;;;;;;;23.60;53.68;100173.16;6230261;28;20040;-88
2022/06/07 14:36:09;;;;;;;4.45;4.03;;;;;;;23.38;52.64;100169.28;6234831;28;20482;-87
2022/06/07 14:39:21;;;;;;;4.47;3.60;;;;;;;23.22;57.61;100157.38;6232568;28;20038;-87
2022/06/07 14:42:23;;;;;;;6.28;4.03;;;;;;;23.26;54.08;100165.69;6238019;28;20471;-87
2022/06/07 14:45:37;;;;;;;5.82;3.40;;;;;;;23.53;55.60;100166.31;6240909;28;20044;-87
2022/06/07 14:49:08;;;;;;;5.22;3.15;;;;;;;23.83;52.77;100167.31;6244671;28;20264;-87
2022/06/07 14:52:14;;;;;;;3.58;3.20;;;;;;;23.81;54.18;100156.13;6242775;28;20045;-87
2022/06/07 14:55:24;;;;;;;3.80;3.50;;;;;;;24.04;53.24;100155.50;6236303;28;20113;-88